createdAt,value
2018-09-01T00:00:40.283Z,93728.53
2018-09-01T00:03:08.908Z,93722.77
2018-09-01T00:05:37.246Z,93723.36
2018-09-01T00:08:05.518Z,93723.84
2018-09-01T00:10:33.757Z,93729.36
2018-09-01T00:13:01.879Z,93721.33
2018-09-01T00:15:30.047Z,93724.02
2018-09-01T00:17:58.180Z,93719.94
2018-09-01T00:20:26.289Z,93721.84
2018-09-01T00:22:54.599Z,93722.72
2018-09-01T00:25:22.740Z,93724.03
2018-09-01T00:27:50.755Z,93723.67
2018-09-01T00:30:18.776Z,93726.52
2018-09-01T00:32:46.779Z,93728.58
2018-09-01T00:35:14.861Z,93727.84
2018-09-01T00:37:48.434Z,93723.91
2018-09-01T00:40:16.617Z,93725.59
2018-09-01T00:42:44.740Z,93729.52
2018-09-01T00:45:12.757Z,93732.52
2018-09-01T00:47:40.955Z,93732.75
2018-09-01T00:50:09.079Z,93730.25
2018-09-01T00:52:37.128Z,93734.77
2018-09-01T00:55:09.199Z,93736.80
2018-09-01T00:57:37.252Z,93743.34
2018-09-01T01:00:05.610Z,93740.61
2018-09-01T01:02:34.048Z,93736.56
2018-09-01T01:05:02.222Z,93740.72
2018-09-01T01:07:30.257Z,93737.16
2018-09-01T01:09:58.270Z,93740.38
2018-09-01T01:12:26.292Z,93739.07
2018-09-01T01:14:54.430Z,93739.19
2018-09-01T01:17:22.479Z,93731.44
2018-09-01T01:19:50.570Z,93730.62
2018-09-01T01:22:18.650Z,93742.14
2018-09-01T01:24:46.826Z,93738.95
2018-09-01T01:27:14.924Z,93736.79
2018-09-01T01:29:43.043Z,93731.81
2018-09-01T01:32:11.179Z,93734.42
2018-09-01T01:34:39.231Z,93737.64
2018-09-01T01:37:07.277Z,93725.70
2018-09-01T01:39:35.468Z,93734.41
2018-09-01T01:42:03.500Z,93732.73
2018-09-01T01:44:31.856Z,93738.33
2018-09-01T01:46:59.975Z,93732.45
2018-09-01T01:49:28.006Z,93733.05
2018-09-01T01:51:56.116Z,93723.62
2018-09-01T01:54:24.121Z,93726.50
2018-09-01T01:56:52.161Z,93724.59
2018-09-01T01:59:20.276Z,93733.03
2018-09-01T02:01:48.398Z,93724.81
2018-09-01T02:04:16.542Z,93733.63
2018-09-01T02:06:44.582Z,93730.52
2018-09-01T02:09:12.665Z,93733.52
2018-09-01T02:11:40.660Z,93728.37
2018-09-01T02:14:08.737Z,93734.22
2018-09-01T02:16:36.814Z,93727.39
2018-09-01T02:19:05.152Z,93735.12
2018-09-01T02:21:33.244Z,93735.74
2018-09-01T02:24:01.289Z,93731.59
2018-09-01T02:26:29.368Z,93728.58
2018-09-01T02:28:57.486Z,93729.77
2018-09-01T02:31:25.607Z,93723.94
2018-09-01T02:33:53.766Z,93728.08
2018-09-01T02:36:21.823Z,93725.84
2018-09-01T02:38:50.023Z,93725.34
2018-09-01T02:41:18.237Z,93720.70
2018-09-01T02:43:46.392Z,93727.72
2018-09-01T02:46:14.390Z,93729.25
2018-09-01T02:48:42.446Z,93728.53
2018-09-01T02:51:10.740Z,93723.81
2018-09-01T02:53:38.839Z,93729.53
2018-09-01T02:56:06.843Z,93726.04
2018-09-01T02:58:34.878Z,93727.48
2018-09-01T03:01:08.476Z,93723.77
2018-09-01T03:03:36.473Z,93723.30
2018-09-01T03:06:04.605Z,93725.20
2018-09-01T03:08:32.612Z,93720.91
2018-09-01T03:11:00.624Z,93725.45
2018-09-01T03:13:28.849Z,93722.22
2018-09-01T03:15:56.905Z,93722.69
2018-09-01T03:18:24.966Z,93726.52
2018-09-01T03:20:53.159Z,93726.65
2018-09-01T03:23:21.547Z,93729.25
2018-09-01T03:25:49.634Z,93729.95
2018-09-01T03:28:17.847Z,93731.03
2018-09-01T03:30:45.976Z,93731.25
2018-09-01T03:33:14.012Z,93736.77
2018-09-01T03:35:42.136Z,93739.83
2018-09-01T03:38:10.384Z,93739.51
2018-09-01T03:40:38.748Z,93744.36
2018-09-01T03:43:06.954Z,93744.73
2018-09-01T03:45:35.209Z,93743.77
2018-09-01T03:48:03.484Z,93749.88
2018-09-01T03:50:31.789Z,93754.86
2018-09-01T03:52:59.962Z,93759.64
2018-09-01T03:55:28.068Z,93754.75
2018-09-01T03:57:56.336Z,93763.70
2018-09-01T04:00:27.359Z,93763.33
2018-09-01T04:02:56.621Z,93765.48
2018-09-01T04:05:24.733Z,93761.83
2018-09-01T04:07:52.988Z,93763.65
2018-09-01T04:10:21.100Z,93759.39
2018-09-01T04:12:49.417Z,93755.59
2018-09-01T04:15:17.528Z,93767.17
2018-09-01T04:17:46.138Z,93757.25
2018-09-01T04:20:14.293Z,93764.48
2018-09-01T04:22:42.477Z,93770.84
2018-09-01T04:25:10.845Z,93769.47
2018-09-01T04:27:38.965Z,93768.77
2018-09-01T04:30:07.325Z,93769.49
2018-09-01T04:32:35.423Z,93767.84
2018-09-01T04:35:03.671Z,93769.91
2018-09-01T04:37:31.883Z,93762.17
2018-09-01T04:39:59.927Z,93767.41
2018-09-01T04:42:28.071Z,93762.83
2018-09-01T04:44:56.432Z,93763.03
2018-09-01T04:47:24.512Z,93764.69
2018-09-01T04:49:52.812Z,93763.84
2018-09-01T04:52:20.905Z,93766.20
2018-09-01T04:54:49.076Z,93765.61
2018-09-01T04:57:17.385Z,93760.84
2018-09-01T04:59:45.731Z,93757.37
2018-09-01T05:02:14.171Z,93765.19
2018-09-01T05:04:42.347Z,93762.65
2018-09-01T05:07:10.454Z,93760.28
2018-09-01T05:09:38.781Z,93768.21
2018-09-01T05:12:07.120Z,93765.48
2018-09-01T05:14:35.366Z,93764.30
2018-09-01T05:17:03.724Z,93770.00
2018-09-01T05:19:31.758Z,93769.16
2018-09-01T05:21:59.800Z,93774.19
2018-09-01T05:24:27.893Z,93768.90
2018-09-01T05:26:56.325Z,93773.23
2018-09-01T05:29:24.556Z,93775.50
2018-09-01T05:31:52.816Z,93765.89
2018-09-01T05:34:21.099Z,93764.31
2018-09-01T05:36:49.390Z,93770.86
2018-09-01T05:39:18.191Z,93779.13
2018-09-01T05:41:46.325Z,93774.14
2018-09-01T05:44:14.720Z,93780.63
2018-09-01T05:46:43.373Z,93776.50
2018-09-01T05:49:11.833Z,93774.86
2018-09-01T05:51:40.162Z,93771.27
2018-09-01T05:54:08.907Z,93767.28
2018-09-01T05:56:37.266Z,93759.75
2018-09-01T05:59:05.877Z,93762.56
2018-09-01T06:01:34.127Z,93763.84
2018-09-01T06:04:03.393Z,93763.38
2018-09-01T06:06:31.494Z,93766.54
2018-09-01T06:08:59.835Z,93770.00
2018-09-01T06:11:28.039Z,93777.29
2018-09-01T06:13:56.293Z,93771.01
2018-09-01T06:16:24.461Z,93770.01
2018-09-01T06:18:52.613Z,93774.81
2018-09-01T06:21:20.775Z,93773.65
2018-09-01T06:23:49.257Z,93776.98
2018-09-01T06:26:17.371Z,93782.44
2018-09-01T06:28:48.598Z,93783.09
2018-09-01T06:31:17.788Z,93782.63
2018-09-01T06:33:46.012Z,93781.95
2018-09-01T06:36:14.184Z,93781.61
2018-09-01T06:38:42.411Z,93780.44
2018-09-01T06:41:10.697Z,93782.62
2018-09-01T06:43:39.011Z,93778.96
2018-09-01T06:46:07.217Z,93786.41
2018-09-01T06:48:35.468Z,93780.44
2018-09-01T06:51:03.771Z,93785.43
2018-09-01T06:53:31.969Z,93783.27
2018-09-01T06:56:00.585Z,93784.28
2018-09-01T06:58:28.774Z,93783.61
2018-09-01T07:00:57.004Z,93776.63
2018-09-01T07:03:25.272Z,93785.53
2018-09-01T07:05:53.573Z,93786.07
2018-09-01T07:08:21.753Z,93790.01
2018-09-01T07:10:49.997Z,93792.55
2018-09-01T07:13:18.263Z,93789.39
2018-09-01T07:15:46.468Z,93794.75
2018-09-01T07:18:14.733Z,93782.95
2018-09-01T07:20:43.037Z,93779.60
2018-09-01T07:23:11.448Z,93783.11
2018-09-01T07:25:39.703Z,93787.95
2018-09-01T07:28:08.707Z,93785.48
2018-09-01T07:30:37.093Z,93787.05
2018-09-01T07:33:05.618Z,93782.55
2018-09-01T07:35:33.766Z,93786.89
2018-09-01T07:38:02.082Z,93783.84
2018-09-01T07:40:30.512Z,93788.59
2018-09-01T07:42:58.740Z,93783.60
2018-09-01T07:45:27.321Z,93781.81
2018-09-01T07:47:55.543Z,93786.80
2018-09-01T07:50:23.801Z,93778.07
2018-09-01T07:52:52.097Z,93779.09
2018-09-01T07:55:20.353Z,93784.32
2018-09-01T07:57:48.722Z,93787.78
2018-09-01T08:00:17.026Z,93786.41
2018-09-01T08:02:45.467Z,93788.31
2018-09-01T08:05:13.791Z,93786.80
2018-09-01T08:07:42.048Z,93781.99
2018-09-01T08:10:10.225Z,93774.64
2018-09-01T08:12:38.991Z,93776.63
2018-09-01T08:15:07.929Z,93774.25
2018-09-01T08:17:36.471Z,93773.20
2018-09-01T08:20:04.752Z,93769.70
2018-09-01T08:22:32.960Z,93764.02
2018-09-01T08:25:01.163Z,93768.59
2018-09-01T08:27:29.486Z,93767.25
2018-09-01T08:29:57.739Z,93766.41
2018-09-01T08:32:25.885Z,93764.83
2018-09-01T08:34:54.636Z,93765.33
2018-09-01T08:37:23.238Z,93769.16
2018-09-01T08:39:51.443Z,93766.80
2018-09-01T08:42:19.873Z,93760.31
2018-09-01T08:44:50.025Z,93763.48
2018-09-01T08:47:22.728Z,93760.91
2018-09-01T08:49:52.400Z,93755.45
2018-09-01T08:52:21.581Z,93761.10
2018-09-01T08:54:50.506Z,93758.58
2018-09-01T08:57:19.433Z,93752.28
2018-09-01T08:59:47.656Z,93749.38
2018-09-01T09:02:15.965Z,93754.05
2018-09-01T09:04:44.348Z,93748.85
2018-09-01T09:07:13.265Z,93752.83
2018-09-01T09:09:41.583Z,93747.48
2018-09-01T09:12:09.969Z,93749.63
2018-09-01T09:14:38.154Z,93753.91
2018-09-01T09:17:06.721Z,93754.53
2018-09-01T09:19:35.392Z,93754.80
2018-09-01T09:22:04.255Z,93757.96
2018-09-01T09:24:34.426Z,93759.30
2018-09-01T09:27:12.084Z,93754.47
2018-09-01T09:29:40.706Z,93754.41
2018-09-01T09:32:09.065Z,93759.93
2018-09-01T09:34:37.640Z,93758.22
2018-09-01T09:37:06.369Z,93753.55
2018-09-01T09:39:36.349Z,93755.55
2018-09-01T09:42:06.105Z,93754.59
2018-09-01T09:44:34.775Z,93757.14
2018-09-01T09:47:03.359Z,93749.92
2018-09-01T09:49:31.699Z,93754.58
2018-09-01T09:52:00.258Z,93755.27
2018-09-01T09:54:28.885Z,93753.73
2018-09-01T09:56:58.621Z,93752.63
2018-09-01T09:59:27.131Z,93750.09
2018-09-01T10:02:02.510Z,93750.55
2018-09-01T10:04:31.008Z,93744.43
2018-09-01T10:07:00.541Z,93748.03
2018-09-01T10:09:28.613Z,93742.26
2018-09-01T10:11:56.989Z,93745.63
2018-09-01T10:14:25.372Z,93745.84
2018-09-01T10:16:54.941Z,93743.47
2018-09-01T10:19:23.772Z,93729.92
2018-09-01T10:21:52.780Z,93724.77
2018-09-01T10:24:21.038Z,93722.62
2018-09-01T10:26:50.555Z,93729.09
2018-09-01T10:29:19.882Z,93723.95
2018-09-01T10:31:48.270Z,93720.56
2018-09-01T10:34:18.004Z,93724.91
2018-09-01T10:36:47.662Z,93717.75
2018-09-01T10:39:15.868Z,93717.81
2018-09-01T10:41:44.176Z,93715.91
2018-09-01T10:44:13.041Z,93717.56
2018-09-01T10:46:42.241Z,93712.74
2018-09-01T10:49:10.880Z,93714.68
2018-09-01T10:51:39.638Z,93715.62
2018-09-01T10:54:08.030Z,93708.59
2018-09-01T10:56:36.462Z,93703.95
2018-09-01T10:59:05.257Z,93705.02
2018-09-01T11:01:33.562Z,93705.91
2018-09-01T11:04:01.743Z,93705.62
2018-09-01T11:06:31.941Z,93703.23
2018-09-01T11:09:00.300Z,93705.52
2018-09-01T11:11:28.703Z,93707.89
2018-09-01T11:13:57.169Z,93712.48
2018-09-01T11:16:26.778Z,93708.77
2018-09-01T11:18:55.647Z,93707.75
2018-09-01T11:21:27.788Z,93702.38
2018-09-01T11:23:58.696Z,93703.37
2018-09-01T11:26:29.706Z,93693.67
2018-09-01T11:29:00.319Z,93698.58
2018-09-01T11:31:35.924Z,93696.34
2018-09-01T11:34:07.904Z,93694.79
2018-09-01T11:36:43.015Z,93692.59
2018-09-01T11:39:16.403Z,93692.75
2018-09-01T11:41:53.095Z,93684.05
2018-09-01T11:44:25.045Z,93686.83
2018-09-01T11:46:56.747Z,93682.48
2018-09-01T11:49:26.193Z,93675.36
2018-09-01T11:52:05.248Z,93674.98
2018-09-01T11:54:34.932Z,93673.31
2018-09-01T11:57:10.852Z,93675.00
2018-09-01T11:59:41.095Z,93669.30
2018-09-01T12:02:09.999Z,93663.42
2018-09-01T12:04:39.157Z,93666.18
2018-09-01T12:07:09.292Z,93658.47
2018-09-01T12:09:37.862Z,93660.36
2018-09-01T12:12:07.080Z,93653.34
2018-09-01T12:14:35.868Z,93656.28
2018-09-01T12:17:06.185Z,93659.61
2018-09-01T12:19:35.206Z,93657.83
2018-09-01T12:22:04.843Z,93665.81
2018-09-01T12:24:33.822Z,93663.91
2018-09-01T12:27:05.325Z,93662.20
2018-09-01T12:29:35.849Z,93664.94
2018-09-01T12:32:04.406Z,93661.85
2018-09-01T12:34:33.024Z,93664.64
2018-09-01T12:37:01.595Z,93672.64
2018-09-01T12:39:30.006Z,93670.27
2018-09-01T12:41:58.556Z,93661.20
2018-09-01T12:44:27.220Z,93667.46
2018-09-01T12:46:56.889Z,93660.56
2018-09-01T12:49:25.727Z,93651.98
2018-09-01T12:51:54.952Z,93654.52
2018-09-01T12:54:23.548Z,93653.11
2018-09-01T12:56:52.206Z,93647.25
2018-09-01T12:59:20.892Z,93642.70
2018-09-01T13:01:49.371Z,93641.30
2018-09-01T13:04:17.871Z,93638.96
2018-09-01T13:06:47.107Z,93634.42
2018-09-01T13:09:15.760Z,93630.71
2018-09-01T13:11:44.208Z,93625.70
2018-09-01T13:14:12.792Z,93625.28
2018-09-01T13:16:41.445Z,93624.25
2018-09-01T13:19:09.988Z,93622.02
2018-09-01T13:21:38.559Z,93612.84
2018-09-01T13:24:07.079Z,93610.92
2018-09-01T13:26:35.888Z,93612.53
2018-09-01T13:29:04.744Z,93608.47
2018-09-01T13:31:33.476Z,93608.98
2018-09-01T13:34:02.410Z,93608.05
2018-09-01T13:36:36.675Z,93607.87
2018-09-01T13:39:06.360Z,93612.61
2018-09-01T13:41:34.942Z,93613.12
2018-09-01T13:44:03.472Z,93609.08
2018-09-01T13:46:32.130Z,93615.38
2018-09-01T13:49:00.725Z,93614.87
2018-09-01T13:51:29.339Z,93613.84
2018-09-01T13:53:57.821Z,93615.42
2018-09-01T13:56:27.627Z,93620.20
2018-09-01T13:58:56.147Z,93622.09
2018-09-01T14:01:24.603Z,93622.50
2018-09-01T14:03:53.098Z,93626.90
2018-09-01T14:06:22.054Z,93626.46
2018-09-01T14:08:50.496Z,93625.84
2018-09-01T14:11:19.453Z,93629.68
2018-09-01T14:13:48.554Z,93630.30
2018-09-01T14:16:17.147Z,93621.98
2018-09-01T14:18:46.033Z,93625.76
2018-09-01T14:21:14.573Z,93621.75
2018-09-01T14:23:43.562Z,93622.16
2018-09-01T14:26:12.962Z,93623.49
2018-09-01T14:28:42.382Z,93624.62
2018-09-01T14:31:11.213Z,93626.67
2018-09-01T14:33:39.682Z,93627.59
2018-09-01T14:36:08.190Z,93628.92
2018-09-01T14:38:36.881Z,93624.48
2018-09-01T14:41:06.004Z,93626.17
2018-09-01T14:43:34.475Z,93629.58
2018-09-01T14:46:03.424Z,93629.37
2018-09-01T14:48:31.896Z,93621.77
2018-09-01T14:51:08.164Z,93623.03
2018-09-01T14:53:37.142Z,93617.76
2018-09-01T14:56:05.565Z,93626.58
2018-09-01T14:58:34.120Z,93620.63
2018-09-01T15:01:02.496Z,93630.30
2018-09-01T15:03:30.764Z,93633.25
2018-09-01T15:05:58.997Z,93636.23
2018-09-01T15:08:27.251Z,93630.45
2018-09-01T15:10:55.605Z,93637.21
2018-09-01T15:13:23.917Z,93636.33
2018-09-01T15:15:52.086Z,93638.84
2018-09-01T15:18:34.346Z,93639.09
2018-09-01T15:21:02.546Z,93634.52
2018-09-01T15:23:30.738Z,93636.43
2018-09-01T15:25:58.949Z,93636.05
2018-09-01T15:28:27.184Z,93629.65
2018-09-01T15:30:55.465Z,93627.98
2018-09-01T15:33:23.624Z,93630.23
2018-09-01T15:35:51.848Z,93620.91
2018-09-01T15:38:23.355Z,93625.16
2018-09-01T15:40:51.685Z,93623.81
2018-09-01T15:43:19.970Z,93621.61
2018-09-01T15:45:48.880Z,93624.67
2018-09-01T15:48:18.170Z,93625.28
2018-09-01T15:50:47.411Z,93626.16
2018-09-01T15:53:15.673Z,93624.14
2018-09-01T15:55:44.042Z,93619.45
2018-09-01T15:58:16.350Z,93624.28
2018-09-01T16:00:44.943Z,93619.04
2018-09-01T16:03:13.247Z,93621.55
2018-09-01T16:05:41.967Z,93607.62
2018-09-01T16:08:10.773Z,93610.62
2018-09-01T16:10:39.137Z,93606.37
2018-09-01T16:13:07.189Z,93603.75
2018-09-01T16:15:35.318Z,93606.30
2018-09-01T16:18:04.565Z,93608.29
2018-09-01T16:23:18.810Z,93609.55
2018-09-01T16:25:47.469Z,93613.38
2018-09-01T16:28:19.434Z,93609.88
2018-09-01T16:30:47.893Z,93612.96
2018-09-01T16:33:16.428Z,93605.27
2018-09-01T16:35:45.057Z,93602.19
2018-09-01T16:38:13.882Z,93604.09
2018-09-01T16:40:42.605Z,93598.81
2018-09-01T16:43:11.157Z,93600.52
2018-09-01T16:45:39.845Z,93604.06
2018-09-01T16:48:13.922Z,93605.72
2018-09-01T16:50:42.432Z,93606.41
2018-09-01T16:53:11.090Z,93602.92
2018-09-01T16:55:39.611Z,93603.23
2018-09-01T16:58:08.665Z,93608.02
2018-09-01T17:00:37.317Z,93608.69
2018-09-01T17:03:07.020Z,93615.28
2018-09-01T17:05:35.728Z,93614.45
2018-09-01T17:08:08.457Z,93618.73
2018-09-01T17:10:37.026Z,93616.50
2018-09-01T17:13:06.898Z,93622.91
2018-09-01T17:15:36.612Z,93626.68
2018-09-01T17:18:05.877Z,93624.45
2018-09-01T17:20:34.398Z,93629.24
2018-09-01T17:23:02.870Z,93633.08
2018-09-01T17:25:32.086Z,93634.38
2018-09-01T17:28:03.289Z,93631.98
2018-09-01T17:30:32.360Z,93635.45
2018-09-01T17:33:00.926Z,93631.73
2018-09-01T17:35:30.044Z,93634.59
2018-09-01T17:37:59.459Z,93643.33
2018-09-01T17:40:28.035Z,93639.52
2018-09-01T17:42:56.445Z,93644.73
2018-09-01T17:45:24.789Z,93641.30
2018-09-01T17:47:53.446Z,93647.33
2018-09-01T17:50:22.009Z,93650.57
2018-09-01T17:52:50.925Z,93649.98
2018-09-01T17:55:20.116Z,93655.62
2018-09-01T17:57:54.870Z,93661.61
2018-09-01T18:00:28.125Z,93667.36
2018-09-01T18:02:57.957Z,93663.46
2018-09-01T18:05:28.036Z,93669.86
2018-09-01T18:08:00.643Z,93674.39
2018-09-01T18:10:32.417Z,93675.21
2018-09-01T18:13:01.560Z,93674.30
2018-09-01T18:15:31.314Z,93679.39
2018-09-01T18:18:01.419Z,93679.71
2018-09-01T18:20:30.658Z,93680.21
2018-09-01T18:23:02.637Z,93687.81
2018-09-01T18:25:31.283Z,93691.63
2018-09-01T18:28:02.801Z,93689.77
2018-09-01T18:30:31.892Z,93686.80
2018-09-01T18:33:01.425Z,93689.12
2018-09-01T18:35:30.211Z,93689.55
2018-09-01T18:37:59.138Z,93685.69
2018-09-01T18:40:28.698Z,93696.83
2018-09-01T18:42:57.705Z,93694.97
2018-09-01T18:45:26.965Z,93692.88
2018-09-01T18:47:55.893Z,93696.72
2018-09-01T18:50:24.481Z,93697.39
2018-09-01T18:52:53.636Z,93704.12
2018-09-01T18:55:23.317Z,93712.24
2018-09-01T18:57:52.204Z,93713.20
2018-09-01T19:00:20.660Z,93712.80
2018-09-01T19:02:49.480Z,93714.75
2018-09-01T19:05:20.488Z,93713.37
2018-09-01T19:07:50.712Z,93713.05
2018-09-01T19:13:42.479Z,93717.22
2018-09-01T19:16:10.814Z,93717.14
2018-09-01T19:18:39.206Z,93717.98
2018-09-01T19:21:07.734Z,93719.94
2018-09-01T19:23:36.011Z,93724.66
2018-09-01T19:26:04.222Z,93728.41
2018-09-01T19:28:32.420Z,93729.38
2018-09-01T19:31:00.648Z,93723.98
2018-09-01T19:33:28.767Z,93725.30
2018-09-01T19:35:56.900Z,93723.44
2018-09-01T19:38:25.183Z,93711.11
2018-09-01T19:40:53.300Z,93712.92
2018-09-01T19:43:21.787Z,93717.50
2018-09-01T19:45:49.971Z,93714.02
2018-09-01T19:48:18.774Z,93710.75
2018-09-01T19:50:47.097Z,93719.58
2018-09-01T19:53:15.489Z,93713.53
2018-09-01T19:55:43.598Z,93709.52
2018-09-01T19:58:13.845Z,93714.85
2018-09-01T20:00:41.988Z,93708.08
2018-09-01T20:03:10.172Z,93709.33
2018-09-01T20:05:38.402Z,93714.59
2018-09-01T20:08:06.688Z,93711.54
2018-09-01T20:10:34.837Z,93713.28
2018-09-01T20:13:02.983Z,93712.23
2018-09-01T20:15:31.255Z,93722.19
2018-09-01T20:17:59.423Z,93718.38
2018-09-01T20:20:27.729Z,93724.62
2018-09-01T20:22:56.010Z,93718.52
2018-09-01T20:25:24.257Z,93716.23
2018-09-01T20:27:53.144Z,93721.99
2018-09-01T20:30:21.378Z,93722.39
2018-09-01T20:32:49.628Z,93725.41
2018-09-01T20:35:23.722Z,93718.90
2018-09-01T20:37:53.355Z,93719.45
2018-09-01T20:40:21.625Z,93721.53
2018-09-01T20:42:49.969Z,93717.02
2018-09-01T20:45:18.172Z,93722.08
2018-09-01T20:47:46.969Z,93717.71
2018-09-01T20:50:15.426Z,93717.02
2018-09-01T20:52:43.588Z,93722.64
2018-09-01T20:55:11.808Z,93717.52
2018-09-01T20:57:40.298Z,93725.80
2018-09-01T21:00:08.670Z,93723.53
2018-09-01T21:02:36.773Z,93723.52
2018-09-01T21:05:04.921Z,93718.66
2018-09-01T21:07:33.423Z,93720.64
2018-09-01T21:10:01.994Z,93727.14
2018-09-01T21:12:30.110Z,93728.46
2018-09-01T21:14:58.287Z,93726.32
2018-09-01T21:17:27.519Z,93726.87
2018-09-01T21:19:55.885Z,93724.98
2018-09-01T21:22:23.958Z,93722.28
2018-09-01T21:24:52.071Z,93721.84
2018-09-01T21:27:20.276Z,93718.36
2018-09-01T21:29:48.419Z,93727.41
2018-09-01T21:32:16.554Z,93724.31
2018-09-01T21:34:44.701Z,93718.83
2018-09-01T21:37:14.058Z,93717.64
2018-09-01T21:39:42.459Z,93715.78
2018-09-01T21:42:11.423Z,93715.06
2018-09-01T21:44:39.563Z,93711.16
2018-09-01T21:47:07.830Z,93717.53
2018-09-01T21:49:35.841Z,93727.34
2018-09-01T21:52:04.211Z,93721.88
2018-09-01T21:54:32.253Z,93725.12
2018-09-01T21:57:00.688Z,93727.00
2018-09-01T21:59:28.831Z,93725.12
2018-09-01T22:02:02.451Z,93725.00
2018-09-01T22:05:33.959Z,93723.73
2018-09-01T22:08:02.188Z,93712.86
2018-09-01T22:10:32.004Z,93720.25
2018-09-01T22:13:00.104Z,93718.72
2018-09-01T22:15:28.297Z,93715.03
2018-09-01T22:17:56.464Z,93721.11
2018-09-01T22:20:24.977Z,93722.79
2018-09-01T22:22:56.361Z,93723.27
2018-09-01T22:25:24.772Z,93726.77
2018-09-01T22:27:52.754Z,93720.33
2018-09-01T22:30:20.852Z,93722.95
2018-09-01T22:32:49.032Z,93728.32
2018-09-01T22:35:17.000Z,93728.36
2018-09-01T22:37:45.020Z,93710.17
2018-09-01T22:40:13.150Z,93724.33
2018-09-01T22:42:41.208Z,93728.08
2018-09-01T22:45:09.364Z,93735.77
2018-09-01T22:47:38.210Z,93734.73
2018-09-01T22:50:06.595Z,93735.02
2018-09-01T22:52:34.669Z,93736.11
2018-09-01T22:55:02.717Z,93743.16
2018-09-01T22:57:30.807Z,93742.34
2018-09-01T22:59:58.824Z,93745.20
2018-09-01T23:02:26.770Z,93737.97
2018-09-01T23:04:54.720Z,93737.27
2018-09-01T23:07:22.795Z,93735.47
2018-09-01T23:09:50.733Z,93733.94
2018-09-01T23:12:18.716Z,93744.09
2018-09-01T23:14:46.663Z,93738.50
2018-09-01T23:17:14.848Z,93736.88
2018-09-01T23:19:42.821Z,93744.54
2018-09-01T23:22:10.858Z,93754.07
2018-09-01T23:24:38.840Z,93750.63
2018-09-01T23:27:06.929Z,93750.05
2018-09-01T23:29:34.879Z,93749.33
2018-09-01T23:32:02.844Z,93746.23
2018-09-01T23:34:30.755Z,93742.56
2018-09-01T23:36:58.962Z,93746.50
2018-09-01T23:39:26.950Z,93742.45
2018-09-01T23:41:54.834Z,93743.41
2018-09-01T23:44:23.004Z,93746.86
2018-09-01T23:46:51.590Z,93750.56
2018-09-01T23:49:19.611Z,93754.98
2018-09-01T23:51:47.513Z,93758.20
2018-09-01T23:54:15.428Z,93752.59
2018-09-01T23:56:43.566Z,93753.58
2018-09-01T23:59:11.638Z,93752.27
